createdAt,value
2023-01-31T00:01:33.358Z,100541.59
2023-01-31T00:04:03.899Z,100540.13
2023-01-31T00:06:33.373Z,100544.44
2023-01-31T00:09:01.563Z,100550.38
2023-01-31T00:11:30.230Z,100548.56
2023-01-31T00:13:58.897Z,100535.84
2023-01-31T00:16:26.628Z,100539.75
2023-01-31T00:18:53.312Z,100538.53
2023-01-31T00:21:22.577Z,100531.56
2023-01-31T00:23:50.321Z,100549.59
2023-01-31T00:26:19.885Z,100542.44
2023-01-31T00:28:48.228Z,100545.28
2023-01-31T00:31:16.701Z,100538.56
2023-01-31T00:33:44.922Z,100535.28
2023-01-31T00:36:16.964Z,100534.03
2023-01-31T00:38:44.818Z,100541.41
2023-01-31T00:41:12.219Z,100536.72
2023-01-31T00:43:38.817Z,100530.78
2023-01-31T00:46:06.429Z,100526.25
2023-01-31T00:48:33.649Z,100523.81
2023-01-31T00:51:00.342Z,100516.03
2023-01-31T00:53:27.060Z,100525.84
2023-01-31T00:55:56.477Z,100529.53
2023-01-31T00:58:23.079Z,100537.13
2023-01-31T01:00:49.756Z,100535.50
2023-01-31T01:03:16.486Z,100529.16
2023-01-31T01:05:43.021Z,100527.50
2023-01-31T01:08:10.180Z,100532.84
2023-01-31T01:10:36.903Z,100540.19
2023-01-31T01:13:05.719Z,100548.56
2023-01-31T01:15:32.859Z,100545.28
2023-01-31T01:17:59.508Z,100546.31
2023-01-31T01:20:26.117Z,100539.34
2023-01-31T01:22:53.580Z,100553.50
2023-01-31T01:25:20.789Z,100548.38
2023-01-31T01:27:47.557Z,100545.09
2023-01-31T01:30:14.294Z,100541.41
2023-01-31T01:32:40.946Z,100538.75
2023-01-31T01:35:08.034Z,100539.78
2023-01-31T01:37:34.676Z,100532.81
2023-01-31T01:40:01.248Z,100536.50
2023-01-31T01:42:33.229Z,100540.19
2023-01-31T01:45:02.375Z,100544.28
2023-01-31T01:47:54.265Z,100544.69
2023-01-31T01:50:35.108Z,100552.06
2023-01-31T01:53:10.956Z,100547.94
2023-01-31T01:55:51.749Z,100544.25
2023-01-31T01:58:25.386Z,100540.56
2023-01-31T02:00:52.782Z,100540.81
2023-01-31T02:03:19.599Z,100537.31
2023-01-31T02:05:49.535Z,100543.47
2023-01-31T02:08:19.247Z,100542.63
2023-01-31T02:11:11.845Z,100536.47
2023-01-31T02:13:41.549Z,100544.25
2023-01-31T02:16:08.508Z,100543.66
2023-01-31T02:18:35.679Z,100540.19
2023-01-31T02:21:33.449Z,100546.72
2023-01-31T02:24:41.243Z,100533.22
2023-01-31T02:27:25.970Z,100526.28
2023-01-31T02:30:23.057Z,100531.16
2023-01-31T02:33:00.696Z,100538.16
2023-01-31T02:36:01.067Z,100535.25
2023-01-31T02:38:52.627Z,100525.03
2023-01-31T02:41:37.913Z,100531.97
2023-01-31T02:44:41.838Z,100551.63
2023-01-31T02:47:19.851Z,100540.97
2023-01-31T02:50:01.020Z,100539.34
2023-01-31T02:52:42.844Z,100540.97
2023-01-31T02:55:37.846Z,100528.50
2023-01-31T02:58:08.578Z,100536.09
2023-01-31T03:00:38.919Z,100541.19
2023-01-31T03:03:08.067Z,100543.84
2023-01-31T03:05:34.736Z,100550.81
2023-01-31T03:08:05.328Z,100554.09
2023-01-31T03:10:57.863Z,100550.41
2023-01-31T03:13:44.064Z,100558.78
2023-01-31T03:16:41.486Z,100541.41
2023-01-31T03:19:14.092Z,100533.63
2023-01-31T03:22:08.278Z,100536.88
2023-01-31T03:24:35.555Z,100529.53
2023-01-31T03:27:03.380Z,100530.75
2023-01-31T03:29:36.277Z,100536.28
2023-01-31T03:32:11.980Z,100531.97
2023-01-31T03:34:39.302Z,100540.56
2023-01-31T03:37:43.148Z,100533.22
2023-01-31T03:40:37.103Z,100532.56
2023-01-31T03:43:21.997Z,100520.13
2023-01-31T03:46:10.660Z,100520.94
2023-01-31T03:48:42.012Z,100521.34
2023-01-31T03:51:15.119Z,100514.19
2023-01-31T03:53:48.390Z,100517.25
2023-01-31T03:56:25.526Z,100527.88
2023-01-31T03:58:58.917Z,100516.03
2023-01-31T04:01:29.512Z,100521.34
2023-01-31T04:04:03.652Z,100523.59
2023-01-31T04:06:30.315Z,100526.66
2023-01-31T04:08:56.903Z,100518.28
2023-01-31T04:11:26.175Z,100532.41
2023-01-31T04:13:52.926Z,100523.19
2023-01-31T04:16:19.903Z,100526.47
2023-01-31T04:18:46.542Z,100523.41
2023-01-31T04:21:15.374Z,100522.59
2023-01-31T04:23:42.038Z,100535.88
2023-01-31T04:26:08.585Z,100539.59
2023-01-31T04:28:35.169Z,100536.91
2023-01-31T04:31:01.819Z,100544.09
2023-01-31T04:33:28.517Z,100540.59
2023-01-31T04:35:55.070Z,100551.44
2023-01-31T04:38:21.652Z,100548.97
2023-01-31T04:40:48.249Z,100555.31
2023-01-31T04:43:15.065Z,100552.06
2023-01-31T04:45:41.790Z,100554.91
2023-01-31T04:48:09.063Z,100556.97
2023-01-31T04:50:35.620Z,100544.44
2023-01-31T04:53:02.271Z,100538.94
2023-01-31T04:55:29.048Z,100545.06
2023-01-31T04:57:55.635Z,100536.88
2023-01-31T05:00:22.404Z,100524.59
2023-01-31T05:02:50.597Z,100532.38
2023-01-31T05:05:17.270Z,100530.31
2023-01-31T05:07:44.914Z,100524.19
2023-01-31T05:10:12.296Z,100537.72
2023-01-31T05:12:39.271Z,100531.97
2023-01-31T05:15:07.872Z,100535.44
2023-01-31T05:17:34.618Z,100549.59
2023-01-31T05:20:01.534Z,100549.59
2023-01-31T05:22:28.362Z,100543.44
2023-01-31T05:24:57.570Z,100545.47
2023-01-31T05:27:25.595Z,100544.25
2023-01-31T05:29:52.829Z,100543.47
2023-01-31T05:32:19.875Z,100545.91
2023-01-31T05:34:46.466Z,100545.50
2023-01-31T05:37:13.130Z,100553.69
2023-01-31T05:39:40.011Z,100533.41
2023-01-31T05:42:06.796Z,100544.06
2023-01-31T05:44:33.610Z,100533.00
2023-01-31T05:47:01.402Z,100542.25
2023-01-31T05:49:32.726Z,100535.66
2023-01-31T05:52:00.768Z,100537.72
2023-01-31T05:54:27.572Z,100544.69
2023-01-31T05:56:54.198Z,100535.25
2023-01-31T05:59:20.773Z,100537.56
2023-01-31T06:01:47.800Z,100532.22
2023-01-31T06:04:14.616Z,100527.88
2023-01-31T06:06:41.275Z,100525.38
2023-01-31T06:09:07.923Z,100518.25
2023-01-31T06:11:34.650Z,100523.88
2023-01-31T06:14:01.247Z,100529.09
2023-01-31T06:16:27.871Z,100530.91
2023-01-31T06:18:55.727Z,100535.69
2023-01-31T06:21:22.933Z,100529.69
2023-01-31T06:23:49.689Z,100540.84
2023-01-31T06:26:16.471Z,100542.94
2023-01-31T06:28:45.229Z,100541.38
2023-01-31T06:31:13.270Z,100534.81
2023-01-31T06:33:46.748Z,100528.69
2023-01-31T06:36:18.097Z,100535.09
2023-01-31T06:38:49.071Z,100531.84
2023-01-31T06:41:16.337Z,100534.94
2023-01-31T06:43:42.911Z,100542.78
2023-01-31T06:46:09.580Z,100529.63
2023-01-31T06:48:36.243Z,100534.38
2023-01-31T06:51:03.041Z,100539.50
2023-01-31T06:53:29.641Z,100543.81
2023-01-31T06:55:56.440Z,100547.50
2023-01-31T06:58:23.025Z,100545.25
2023-01-31T07:00:49.627Z,100547.50
2023-01-31T07:03:16.266Z,100548.09
2023-01-31T07:05:42.891Z,100539.47
2023-01-31T07:08:09.522Z,100540.69
2023-01-31T07:10:36.351Z,100542.50
2023-01-31T07:13:03.212Z,100535.09
2023-01-31T07:15:30.175Z,100522.16
2023-01-31T07:18:00.257Z,100525.44
2023-01-31T07:20:27.340Z,100516.56
2023-01-31T07:22:56.741Z,100513.06
2023-01-31T07:25:24.008Z,100513.84
2023-01-31T07:27:50.610Z,100514.69
2023-01-31T07:30:17.528Z,100519.19
2023-01-31T07:32:44.289Z,100530.69
2023-01-31T07:35:10.834Z,100538.88
2023-01-31T07:37:39.430Z,100530.22
2023-01-31T07:40:07.077Z,100533.25
2023-01-31T07:42:33.676Z,100537.72
2023-01-31T07:45:10.058Z,100543.69
2023-01-31T07:47:43.886Z,100547.56
2023-01-31T07:50:11.358Z,100550.59
2023-01-31T07:52:37.937Z,100547.53
2023-01-31T07:55:04.893Z,100559.00
2023-01-31T07:57:32.212Z,100546.03
2023-01-31T07:59:58.882Z,100537.38
2023-01-31T08:02:43.698Z,100537.13
2023-01-31T08:05:11.451Z,100531.09
2023-01-31T08:07:38.273Z,100542.19
2023-01-31T08:10:18.249Z,100539.66
2023-01-31T08:12:44.818Z,100532.63
2023-01-31T08:15:11.975Z,100545.69
2023-01-31T08:17:38.531Z,100536.44
2023-01-31T08:20:05.433Z,100545.66
2023-01-31T08:22:32.008Z,100544.78
2023-01-31T08:24:58.570Z,100548.22
2023-01-31T08:27:25.151Z,100553.69
2023-01-31T08:29:51.888Z,100556.53
2023-01-31T08:32:18.473Z,100563.06
2023-01-31T08:34:45.044Z,100567.75
2023-01-31T08:37:11.799Z,100574.06
2023-01-31T08:39:38.406Z,100558.78
2023-01-31T08:42:05.044Z,100550.91
2023-01-31T08:44:32.586Z,100547.13
2023-01-31T08:47:01.972Z,100551.59
2023-01-31T08:49:29.142Z,100535.91
2023-01-31T08:51:56.073Z,100539.16
2023-01-31T08:54:22.626Z,100532.78
2023-01-31T08:56:49.195Z,100521.66
2023-01-31T08:59:15.782Z,100523.88
2023-01-31T09:01:44.060Z,100517.63
2023-01-31T09:04:10.792Z,100513.00
2023-01-31T09:06:37.429Z,100515.38
2023-01-31T09:09:04.197Z,100513.41
2023-01-31T09:11:31.581Z,100530.50
2023-01-31T09:13:58.550Z,100533.97
2023-01-31T09:16:25.237Z,100537.50
2023-01-31T09:18:53.235Z,100546.09
2023-01-31T09:21:21.882Z,100535.59
2023-01-31T09:23:49.041Z,100533.78
2023-01-31T09:26:16.296Z,100539.50
2023-01-31T09:28:43.559Z,100536.13
2023-01-31T09:31:13.824Z,100543.09
2023-01-31T09:33:41.257Z,100544.72
2023-01-31T09:36:16.550Z,100544.97
2023-01-31T09:38:43.290Z,100555.91
2023-01-31T09:41:34.917Z,100563.78
2023-01-31T09:44:11.317Z,100558.06
2023-01-31T09:46:42.492Z,100558.91
2023-01-31T09:49:18.170Z,100551.91
2023-01-31T09:51:45.990Z,100551.00
2023-01-31T09:54:21.169Z,100553.81
2023-01-31T09:57:20.085Z,100558.09
2023-01-31T10:00:14.522Z,100547.88
2023-01-31T10:03:19.614Z,100546.47
2023-01-31T10:05:50.191Z,100543.25
2023-01-31T10:08:16.782Z,100544.44
2023-01-31T10:10:46.307Z,100543.97
2023-01-31T10:13:34.346Z,100545.81
2023-01-31T10:16:17.926Z,100548.88
2023-01-31T10:18:54.058Z,100535.47
2023-01-31T10:21:25.982Z,100524.31
2023-01-31T10:23:55.332Z,100527.56
2023-01-31T10:26:30.613Z,100532.63
2023-01-31T10:29:18.737Z,100521.09
2023-01-31T10:31:53.645Z,100533.22
2023-01-31T10:34:22.937Z,100525.75
2023-01-31T10:36:59.550Z,100524.84
2023-01-31T10:39:35.312Z,100512.50
2023-01-31T10:42:30.417Z,100504.25
2023-01-31T10:45:17.188Z,100498.47
2023-01-31T10:47:51.835Z,100498.47
2023-01-31T10:50:28.723Z,100508.03
2023-01-31T10:53:13.522Z,100497.06
2023-01-31T10:55:54.793Z,100497.78
2023-01-31T10:58:23.902Z,100498.72
2023-01-31T11:00:50.782Z,100486.03
2023-01-31T11:03:18.293Z,100484.50
2023-01-31T11:05:53.996Z,100482.06
2023-01-31T11:08:35.140Z,100474.59
2023-01-31T11:11:08.245Z,100460.63
2023-01-31T11:13:35.214Z,100458.97
2023-01-31T11:16:04.627Z,100448.97
2023-01-31T11:18:45.378Z,100443.38
2023-01-31T11:21:20.184Z,100434.97
2023-01-31T11:23:46.837Z,100426.81
2023-01-31T11:26:15.562Z,100427.75
2023-01-31T11:28:42.304Z,100423.41
2023-01-31T11:31:25.086Z,100422.94
2023-01-31T11:33:59.540Z,100427.81
2023-01-31T11:36:27.021Z,100417.75
2023-01-31T11:38:54.874Z,100415.06
2023-01-31T11:41:33.654Z,100408.91
2023-01-31T11:44:10.925Z,100407.16
2023-01-31T11:46:51.899Z,100421.94
2023-01-31T11:49:42.806Z,100404.47
2023-01-31T11:52:20.659Z,100410.78
2023-01-31T11:54:55.097Z,100400.31
2023-01-31T11:57:32.338Z,100404.94
2023-01-31T12:00:01.356Z,100402.59
2023-01-31T12:02:31.962Z,100388.97
2023-01-31T12:05:00.777Z,100393.59
2023-01-31T12:07:40.553Z,100384.03
2023-01-31T12:10:25.582Z,100401.75
2023-01-31T12:12:53.052Z,100397.44
2023-01-31T12:15:19.863Z,100388.22
2023-01-31T12:17:49.845Z,100376.00
2023-01-31T12:20:36.771Z,100361.13
2023-01-31T12:23:50.581Z,100348.47
2023-01-31T12:26:26.578Z,100333.53
2023-01-31T12:29:21.007Z,100320.59
2023-01-31T12:32:06.023Z,100326.53
2023-01-31T12:35:08.038Z,100344.25
2023-01-31T12:38:11.415Z,100352.38
2023-01-31T12:40:44.039Z,100352.16
2023-01-31T12:43:52.556Z,100343.75
2023-01-31T12:46:25.104Z,100332.69
2023-01-31T12:49:00.859Z,100339.31
2023-01-31T12:51:59.359Z,100328.66
2023-01-31T12:54:44.151Z,100309.94
2023-01-31T12:57:30.618Z,100319.94
2023-01-31T13:00:10.787Z,100332.53
2023-01-31T13:02:58.555Z,100324.25
2023-01-31T13:05:37.328Z,100310.59
2023-01-31T13:08:30.346Z,100311.66
2023-01-31T13:11:22.548Z,100309.94
2023-01-31T13:13:55.931Z,100299.53
2023-01-31T13:16:31.654Z,100306.44
2023-01-31T13:19:03.349Z,100315.28
2023-01-31T13:21:34.771Z,100310.91
2023-01-31T13:24:15.866Z,100300.34
2023-01-31T13:27:04.040Z,100305.69
2023-01-31T13:29:52.334Z,100288.69
2023-01-31T13:32:39.236Z,100292.53
2023-01-31T13:35:14.221Z,100283.50
2023-01-31T13:37:43.936Z,100275.13
2023-01-31T13:40:26.237Z,100264.53
2023-01-31T13:42:54.588Z,100278.72
2023-01-31T13:45:30.178Z,100270.41
2023-01-31T13:48:05.413Z,100266.50
2023-01-31T13:50:53.782Z,100269.75
2023-01-31T13:53:26.356Z,100257.00
2023-01-31T13:55:53.539Z,100248.13
2023-01-31T13:58:24.531Z,100242.75
2023-01-31T14:00:59.426Z,100223.41
2023-01-31T14:03:26.547Z,100240.56
2023-01-31T14:06:01.690Z,100234.97
2023-01-31T14:08:49.976Z,100247.63
2023-01-31T14:11:22.053Z,100257.84
2023-01-31T14:13:50.187Z,100273.34
2023-01-31T14:16:31.843Z,100279.75
2023-01-31T14:18:58.689Z,100280.25
2023-01-31T14:21:31.672Z,100267.91
2023-01-31T14:23:59.188Z,100278.06
2023-01-31T14:26:50.418Z,100278.06
2023-01-31T14:29:21.613Z,100281.81
2023-01-31T14:31:50.087Z,100286.00
2023-01-31T14:34:37.053Z,100281.16
2023-01-31T14:37:23.843Z,100288.47
2023-01-31T14:39:59.519Z,100286.13
2023-01-31T14:42:40.009Z,100287.47
2023-01-31T14:45:31.277Z,100285.84
2023-01-31T14:48:16.380Z,100282.59
2023-01-31T14:51:10.412Z,100289.75
2023-01-31T14:53:55.167Z,100297.50
2023-01-31T14:56:40.104Z,100300.91
2023-01-31T14:59:48.850Z,100302.38
2023-01-31T15:02:34.344Z,100307.19
2023-01-31T15:05:09.963Z,100311.38
2023-01-31T15:07:36.683Z,100319.34
2023-01-31T15:10:04.881Z,100319.50
2023-01-31T15:13:00.704Z,100315.59
2023-01-31T15:15:37.954Z,100317.44
2023-01-31T15:18:16.387Z,100312.69
2023-01-31T15:20:45.681Z,100322.09
2023-01-31T15:23:21.412Z,100325.91
2023-01-31T15:25:49.883Z,100320.88
2023-01-31T15:28:20.260Z,100325.13
2023-01-31T15:30:48.646Z,100325.13
2023-01-31T15:33:22.461Z,100323.22
2023-01-31T15:36:13.261Z,100324.53
2023-01-31T15:38:52.010Z,100323.00
2023-01-31T15:41:18.635Z,100316.91
2023-01-31T15:43:46.383Z,100316.91
2023-01-31T15:46:35.931Z,100321.47
2023-01-31T15:49:02.741Z,100328.44
2023-01-31T15:51:29.780Z,100332.19
2023-01-31T15:54:08.473Z,100329.41
2023-01-31T15:56:39.551Z,100329.91
2023-01-31T15:59:14.010Z,100339.25
2023-01-31T16:01:47.770Z,100346.50
2023-01-31T16:04:14.501Z,100333.06
2023-01-31T16:06:41.358Z,100342.25
2023-01-31T16:09:23.045Z,100331.53
2023-01-31T16:11:49.856Z,100335.59
2023-01-31T16:14:16.900Z,100338.59
2023-01-31T16:16:48.149Z,100334.78
2023-01-31T16:19:22.884Z,100336.56
2023-01-31T16:21:49.765Z,100343.22
2023-01-31T16:24:17.610Z,100336.13
2023-01-31T16:27:01.359Z,100318.19
2023-01-31T16:29:45.290Z,100323.78
2023-01-31T16:32:24.108Z,100324.34
2023-01-31T16:35:03.678Z,100324.34
2023-01-31T16:37:30.317Z,100342.63
2023-01-31T16:40:02.627Z,100339.38
2023-01-31T16:42:31.180Z,100338.31
2023-01-31T16:44:58.221Z,100337.88
2023-01-31T16:47:40.130Z,100339.94
2023-01-31T16:50:32.838Z,100347.78
2023-01-31T16:53:15.692Z,100341.56
2023-01-31T16:55:42.332Z,100325.03
2023-01-31T16:58:10.541Z,100328.50
2023-01-31T17:00:37.524Z,100328.28
2023-01-31T17:03:14.367Z,100318.63
2023-01-31T17:05:47.290Z,100325.03
2023-01-31T17:08:18.180Z,100325.03
2023-01-31T17:10:48.124Z,100316.72
2023-01-31T17:13:20.770Z,100326.19
2023-01-31T17:15:48.382Z,100317.56
2023-01-31T17:18:15.635Z,100319.09
2023-01-31T17:20:45.052Z,100316.06
2023-01-31T17:23:13.981Z,100309.09
2023-01-31T17:25:42.795Z,100306.63
2023-01-31T17:28:10.153Z,100300.13
2023-01-31T17:30:42.927Z,100288.84
2023-01-31T17:33:13.518Z,100286.63
2023-01-31T17:35:42.964Z,100288.75
2023-01-31T17:38:09.506Z,100281.75
2023-01-31T17:40:39.659Z,100286.28
2023-01-31T17:43:06.606Z,100289.31
2023-01-31T17:45:33.316Z,100292.00
2023-01-31T17:48:00.215Z,100290.94
2023-01-31T17:50:28.523Z,100302.72
2023-01-31T17:52:55.765Z,100299.47
2023-01-31T17:55:25.098Z,100293.06
2023-01-31T17:57:52.189Z,100299.78
2023-01-31T18:00:20.428Z,100290.94
2023-01-31T18:02:47.148Z,100290.22
2023-01-31T18:05:18.674Z,100295.81
2023-01-31T18:07:49.816Z,100305.50
2023-01-31T18:10:17.531Z,100310.06
2023-01-31T18:12:44.956Z,100308.66
2023-01-31T18:15:12.150Z,100307.25
2023-01-31T18:17:38.730Z,100312.19
2023-01-31T18:20:05.916Z,100313.59
2023-01-31T18:22:32.513Z,100314.88
2023-01-31T18:24:59.119Z,100303.56
2023-01-31T18:27:25.760Z,100293.09
2023-01-31T18:29:52.330Z,100302.22
2023-01-31T18:32:20.199Z,100295.22
2023-01-31T18:34:46.908Z,100293.34
2023-01-31T18:37:20.058Z,100306.75
2023-01-31T18:39:51.061Z,100306.75
2023-01-31T18:42:18.294Z,100302.22
2023-01-31T18:44:45.080Z,100306.75
2023-01-31T18:47:12.567Z,100299.75
2023-01-31T18:49:39.397Z,100306.16
2023-01-31T18:52:09.518Z,100300.81
2023-01-31T18:54:37.576Z,100312.66
2023-01-31T18:57:04.577Z,100296.59
2023-01-31T18:59:31.221Z,100302.44
2023-01-31T19:01:57.855Z,100300.09
2023-01-31T19:04:24.591Z,100302.53
2023-01-31T19:06:51.492Z,100295.03
2023-01-31T19:09:18.844Z,100300.41
2023-01-31T19:11:45.835Z,100307.44
2023-01-31T19:14:13.705Z,100298.56
2023-01-31T19:16:41.979Z,100316.84
2023-01-31T19:19:09.903Z,100314.50
2023-01-31T19:21:37.921Z,100304.34
2023-01-31T19:24:10.941Z,100303.88
2023-01-31T19:26:37.582Z,100308.75
2023-01-31T19:29:05.100Z,100308.75
2023-01-31T19:31:33.904Z,100311.19
2023-01-31T19:34:03.164Z,100304.22
2023-01-31T19:36:38.175Z,100307.94
2023-01-31T19:39:07.279Z,100308.75
2023-01-31T19:41:34.075Z,100313.06
2023-01-31T19:44:01.838Z,100301.28
2023-01-31T19:46:30.801Z,100309.31
2023-01-31T19:48:58.790Z,100308.25
2023-01-31T19:51:26.285Z,100301.34
2023-01-31T19:54:01.378Z,100304.03
2023-01-31T19:56:28.467Z,100301.13
2023-01-31T19:58:55.157Z,100300.78
2023-01-31T20:01:22.067Z,100301.94
2023-01-31T20:03:50.144Z,100296.91
2023-01-31T20:06:22.514Z,100297.72
2023-01-31T20:08:59.804Z,100305.19
2023-01-31T20:11:27.776Z,100315.09
2023-01-31T20:13:57.316Z,100311.38
2023-01-31T20:16:24.179Z,100320.81
2023-01-31T20:18:51.427Z,100311.72
2023-01-31T20:21:19.898Z,100316.00
2023-01-31T20:23:47.067Z,100299.66
2023-01-31T20:26:15.596Z,100305.63
2023-01-31T20:28:43.461Z,100313.97
2023-01-31T20:31:13.499Z,100314.81
2023-01-31T20:33:40.188Z,100311.88
2023-01-31T20:36:07.533Z,100305.44
2023-01-31T20:38:34.299Z,100286.19
2023-01-31T20:41:01.111Z,100282.44
2023-01-31T20:43:28.081Z,100275.00
2023-01-31T20:46:03.226Z,100285.72
2023-01-31T20:48:29.836Z,100288.63
2023-01-31T20:50:57.467Z,100292.38
2023-01-31T20:53:25.182Z,100282.94
2023-01-31T20:55:56.701Z,100290.66
2023-01-31T20:58:24.452Z,100297.09
2023-01-31T21:00:55.853Z,100300.34
2023-01-31T21:03:23.404Z,100295.78
2023-01-31T21:05:50.578Z,100303.09
2023-01-31T21:08:18.116Z,100308.81
2023-01-31T21:10:56.146Z,100312.53
2023-01-31T21:13:24.175Z,100306.13
2023-01-31T21:15:55.702Z,100299.69
2023-01-31T21:18:25.962Z,100301.31
2023-01-31T21:20:52.941Z,100310.44
2023-01-31T21:23:19.506Z,100306.69
2023-01-31T21:25:46.236Z,100313.69
2023-01-31T21:28:12.911Z,100309.88
2023-01-31T21:30:39.733Z,100303.19
2023-01-31T21:33:06.585Z,100294.34
2023-01-31T21:35:33.273Z,100297.09
2023-01-31T21:37:59.905Z,100299.78
2023-01-31T21:40:26.492Z,100302.47
2023-01-31T21:42:54.472Z,100303.25
2023-01-31T21:45:39.984Z,100303.25
2023-01-31T21:48:30.306Z,100300.75
2023-01-31T21:50:57.573Z,100295.84
2023-01-31T21:53:26.381Z,100295.97
2023-01-31T21:56:12.158Z,100299.22
2023-01-31T21:58:39.568Z,100281.00
2023-01-31T22:01:19.588Z,100294.16
2023-01-31T22:03:51.049Z,100291.81
2023-01-31T22:06:25.746Z,100278.38
2023-01-31T22:08:53.916Z,100279.44
2023-01-31T22:11:20.756Z,100269.44
2023-01-31T22:13:51.631Z,100286.84
2023-01-31T22:16:21.036Z,100285.22
2023-01-31T22:18:48.419Z,100286.03
2023-01-31T22:21:17.759Z,100285.78
2023-01-31T22:23:50.351Z,100288.47
2023-01-31T22:26:28.925Z,100283.91
2023-01-31T22:28:57.507Z,100290.09
2023-01-31T22:31:24.396Z,100288.97
2023-01-31T22:33:51.411Z,100280.34
2023-01-31T22:36:18.838Z,100272.53
2023-01-31T22:38:46.198Z,100276.28
2023-01-31T22:41:14.859Z,100270.09
2023-01-31T22:43:44.431Z,100271.41
2023-01-31T22:46:16.697Z,100256.09
2023-01-31T22:48:43.805Z,100255.03
2023-01-31T22:51:13.787Z,100255.03
2023-01-31T22:53:41.724Z,100245.38
2023-01-31T22:56:14.801Z,100242.94
2023-01-31T22:58:42.113Z,100244.31
2023-01-31T23:01:20.744Z,100238.38
2023-01-31T23:03:48.282Z,100225.78
2023-01-31T23:06:16.513Z,100234.16
2023-01-31T23:08:43.876Z,100215.88
2023-01-31T23:11:15.968Z,100221.50
2023-01-31T23:13:43.023Z,100214.66
2023-01-31T23:16:15.962Z,100217.41
2023-01-31T23:18:42.575Z,100222.28
2023-01-31T23:21:10.720Z,100217.75
2023-01-31T23:23:37.580Z,100216.91
2023-01-31T23:26:05.356Z,100212.13
2023-01-31T23:28:32.568Z,100212.69
2023-01-31T23:30:59.472Z,100205.13
2023-01-31T23:33:26.512Z,100210.50
2023-01-31T23:35:53.107Z,100203.59
2023-01-31T23:38:19.824Z,100211.97
2023-01-31T23:40:55.539Z,100203.13
2023-01-31T23:43:23.151Z,100191.88
2023-01-31T23:45:50.034Z,100192.44
2023-01-31T23:48:16.676Z,100187.16
2023-01-31T23:50:43.695Z,100176.91
2023-01-31T23:53:10.399Z,100182.63
2023-01-31T23:55:37.238Z,100183.41
2023-01-31T23:58:04.130Z,100184.47
